Portada
METAR-TAF:

METAR-TAF

Aeropuertos :

Condado de Jasper, Indiana, Estados Unidos

latitud: 40-56-52N, longitud: 087-10-57W, altitud: 213 m

Observación

El informe se hizo hace 20 minutos, a las 18:55 UTC
Viento 9 kt del sur
Temperatura 31°C
Humedad 52%
Presión 1024 hPa
Visibilidad: 16.1 km
Cielo despejado

METAR: KRZL 191855Z AUTO 19009KT 10SM CLR 31/20 A3024 RMK AO2

Hora: 15:15 (19:15 UTC)


TAF: falta

Observaciones y pronósticos meteorológicos de más de 4000 aeropuertos (mensajes METAR y TAF).

Los puntos amarillos y rojos representan las estaciones disponibles.

Ponga el ratón en el punto deseado para ver el nombre de la estación.

Haga clic para ver las observaciones y los pronósticos meteorológicos.

Para cambiar el mapa : haga clic en los botones verdes con una cruz de color negro para hacer un zoom, en el botón verde con un guión para alejar o en las flechas verdes para mapas adyacentes.


METAR-TAF: